Whitbourne, Canada
Current Conditions -  °F | °C
As of 5:19 AM on Friday 28 Nov 2014 (Local Time) from CYYT Reporting Station
Overcast Overcast  
Wind Chill: 25°   Ceiling: 1300
Heat Index: 36°   Visibility: 15mi
Dew Point: 34°   Wind: 20mph
Humidity: 93%   Direction: 310°NW
Pressure: 29.54"   Gusts: 25mph
Location:  47.42°N, 53.53°W
Report Text: CYYT 280819Z 31017G22KT 15SM BKN013 OVC030 02/01 A2954 RMK SC5SC3 PRESRR SLP007
Loading
Personal Weather Stations






























Interactive Weather Map New forecast layout! Learn more

10-Day Weather Forecast

Advertisements
Track Severe Weather on mobile